О погоде за океаном (США и Канада)

Полезные ссылки:
Метеоцентр.Азия - наш сайт с высокодетализированными прогнозами погоды по пунктам России и мира
Облегчённая версия Метеоклуба (для смартфонов)

О погоде за океаном (США и Канада)

Сейчас в Метеоклубе:
Участников - 0
Максимальное одновременное количество посетителей: 1 [20 Окт 2019 06:49]
Гостей - 0 / Участников - 1

 - Начало - Ответить - Статистика - Регистрация - Поиск -
МЕТЕОКЛУБ : независимое сообщество любителей метеорологии (Европа и Азия) : ФОРУМ О ПОГОДЕ И ПРИРОДЕ / Погода вчера, сегодня, завтра / О погоде за океаном (США и Канада)
<< 1 ... 9 . 10 . 11 . 12 . 13 . 14 . 15 . 16 . 17 . 18 . 19 ... 118 . 119 . >>
Автор Сообщение
artur
Участник
Письмо
наверное, Чукотка. или Таймыр
# Дата: 17 Июл 2010 13:04


По телевизору вчера сказали, что в Бразилии выпал снег, и в Рио-де-Жанейро -8. Правда или это в бред о погоде? Там абсолютный минимум +4.

yogimax
Участник
Письмо
Баргтехайде, Германия
# Дата: 19 Июл 2010 00:00


Не знаю в БРазилии, но в Аргентине точно выпал! Причем в сухой и теплой СЗ части. 16-17 июля города Сальта, Жужуй и Ла Риоха, находящиеся между 24 и 29 паралели ю ш проснулись в снегопаде и снежном покрове. Видео. Сальта http://www.youtube.com/watch?v=ejg6AfjuSpc&feature =related
Жужуй http://www.youtube.com/watch?v=03W5DJqE3VM
Ла Риоха http://www.youtube.com/watch?v=r9dBWNwCe1w&feature =related

slava31
Участник
Письмо
Монино
# Дата: 24 Июл 2010 19:04 - Поправил: slava31


за последние сутки в Чикаго выпало 156,7 мм осадков
AAXX 24124 72530 11240 83003 10206 20200 39887 40122 53002 60901 795// 91151 333 10344 20206 71567 96010 555 92412=

90 мм только за 6 ч.

TornadoF5
Участник
Письмо
Харьков, Украина. (Игорь)
# Дата: 9 Авг 2010 20:15


В штате Минессота 8 августа прошёл мощный торнадо, который просто разбомбил ферму. К счастью, никто не погиб:
http://www.youtube.com/watch?v=4qrqfTmug7I

andrew40grad
Участник
Письмо
Тверь
# Дата: 9 Авг 2010 20:41


Что-то нынче слабоваты тропические циклоны http://www.meteo-tv.ru/news/item.php?newsID=9647, подскажите что там с активностью торнадо в США в этом году?

TornadoF5
Участник
Письмо
Харьков, Украина. (Игорь)
# Дата: 9 Авг 2010 21:43


andrew40grad
По поводу активности торнадо, то этот год выдался довольно спокойным. Количество смерчей ниже среднестатистического. По состоянию на 8 августа на територии США зафиксировано официально 556 случаев торнадо с начала года, из них:
Категория F0 - 260;
Категория F1 - 182;
Категория F2 - 80;
Категория F3 - 23;
Категория F4 - 11;
Категория F5 - 0

Вообще, за последнее десятилетие количество разрушительных торнадо (F4,F5) резко сокращается, однако общее их количество испытывает тенденцию к увеличению.

andrew40grad
Участник
Письмо
Тверь
# Дата: 11 Авг 2010 00:41


Спасибо,а что касается ареала их распространения никаких аномалий не прослеживается,всё также пальма первенства у Аллеи(а то в каком-то источнике слышал,что торнадо зачастили на северо-восток США)?

TornadoF5
Участник
Письмо
Харьков, Украина. (Игорь)
# Дата: 11 Авг 2010 11:44


andrew40grad
а то в каком-то источнике слышал,что торнадо зачастили на северо-восток США)?
Всё дело в том, что на северо-востоке страны торнадо происходят в основном в весеннее время и поздней зимой, а ближе к лету их очаг смещается на запад в знаменитую аллею торнадо.

Summer
Участник
Письмо
Фрязино 25 км. к СВ от Москвы
# Дата: 11 Авг 2010 15:16


yogimax
Жужуй

Только этот город, если в аргентине, "хухуй" называется :)
Из него ещё есть футбольная команда "химнасия".

ded
Участник
Письмо
наро-фоМИНСК
# Дата: 8 Сен 2010 22:07


Осадки в Техасе от тропического шторма Гермина за 24 часа
http://www.ogimet.com/cgi-bin/gsynop?lang=en&esc=4 &nav=Yes&lat=30N&lon=105W&proy=orto&base=bluem&ano =2010&mes=09&day=08hora=12&vr4=R4

Сан Антонио 153 мм
Остин Сити 175 мм

Хьюстон 65 мм

Остатки тропичесой депрессии Гермина (спутниковая анимация)
http://www.ssec.wisc.edu/data/us_comp/us_comp.html

ded
Участник
Письмо
наро-фоМИНСК
# Дата: 8 Сен 2010 22:16


На северо-востоке Техаса (красный прямоугольник) наблюдаются торнадо
http://belo.bimedia.net/WWL/weather/animated-loops /comp/640x480/state_tx_anim.gif


LESS
Участник
Письмо
Приокский лесс на юге МО
# Дата: 8 Сен 2010 23:13


ded
Хьюстон 65 мм

Интересно, с грозой дело было?

ded
Участник
Письмо
наро-фоМИНСК
# Дата: 9 Сен 2010 07:35


LESS Позвони друзьям :)

Суммарные осадки от шторма Гермина в Техасе, в дюймах (1 дюйм = 25,4 мм) http://www.hpc.ncep.noaa.gov/discussions/tcpat5.ht ml

...TEXAS...
GEORGETOWN 2.5 NE 13.20 335 мм
CEDAR PARK 1.0 ESE 12.99
ANDERSON MILL 1.4 NW 12.71
JOLLYVILLE 2.1 SSW 12.23
KILLEEN 2.9 SSW 11.66
LEANDER 1.0 SSE 11.62
AUSTIN 10.7 N 11.48

LESS
Участник
Письмо
Приокский лесс на юге МО
# Дата: 9 Сен 2010 10:07


ded

Они уже в другой части Земного Шара (к сожалению)...

Yurij
Участник
Письмо
Сумы, Украина
# Дата: 13 Сен 2010 15:19


Суровая канадская зима :0




Ilya
Участник
Письмо
г. Белгород
# Дата: 13 Сен 2010 17:16


Yurij. Впечатляет! Только не говорите, что это "на днях";-) Когда и где это было?

Ilya
Участник
Письмо
г. Белгород
# Дата: 13 Сен 2010 17:19


Подскажите пожалуста, где можно взять данные по м/станциям США и Канады, типа рп5.

Yurij
Участник
Письмо
Сумы, Украина
# Дата: 13 Сен 2010 17:40


Ilya
Нашел на форуме фото, точно где и когда не знаю, пишут что в Канаде.

США http://meteocenter.net/us_world.htm
Канада http://meteocenter.net/ca_world.htm

Ilya
Участник
Письмо
г. Белгород
# Дата: 13 Сен 2010 20:59


Юрий. Спасибо, но там нет архива, только данные за 1 день. А хотелось бы за несколько лет.

kostian
Участник
Письмо
Минск. Утомленный агрессивным теплом. Жду зиму!
# Дата: 13 Сен 2010 21:26


Ilya
Так в чем проблема? Смотрите на сайтах национальных метеослужб. Уж в США и Канаде данных - завались! Только не ищите там облачность, атмосферные явления и т.п., что наблюдается визуально: нету! Потому что все станции автоматические. А архивы SYNOP есть на том же www.ogimet.com.

ded
Участник
Письмо
наро-фоМИНСК
# Дата: 28 Сен 2010 07:19


На западном побережье Калифорнии 27 сентября установлены рекорды максимальных температур и некоторые из них абсолютные (как +38,2 29 июля в Москве)
http://www.wrh.noaa.gov/total_forecast/getprod.php ?wfo=lox&sid=LOX&pil=PNS

Например, одна из метеостанций Лос Анжелеса зафиксировала 113 гр Фарентгейта (45 Цельсия)

HIGH RECORD ALL TODAY FOR THE TIME DATE (YEAR) RECORD (DATE) ----- ----------- ---------------- DOWNTOWN LOS ANGELES 113** 106 (1963) 112 ( 6/26/1990) LONG BEACH AIRPORT 111** 109 (1963) 111 (10/15/1961)

На карту Огимета попали не все станции
http://www.ogimet.com/cgi-bin/gsynop?lang=en&esc=4 &nav=Yes&lat=30N&lon=120W&proy=orto&base=bluem&ano =2010&mes=09&day=28hora=00&vtx=Tx

Новость на русском
http://newsru.com/world/28sep2010/recordheat.html

Barynia2006
Участник
Письмо
Mocква, юг, Чертаново
# Дата: 28 Сен 2010 09:07


На радио "Эхо Москвы" сейчас сообщили, сразу после новости об отставке мыра М, что в Лос-Анджелесе +45. Плохо им там...

Sibiryak
Участник
Письмо
Мытищи, Московская область
# Дата: 28 Сен 2010 12:44 - Поправил: Sibiryak


Barynia2006
Плохо им там...
У них там холодный океан под боком, остынут.

Ilya
Участник
Письмо
г. Белгород
# Дата: 28 Сен 2010 16:19 - Поправил: Ilya


kostian

Спасибо, поищу.

ded
Участник
Письмо
наро-фоМИНСК
# Дата: 28 Сен 2010 19:12


Прогноз осадков по восточному побережью США на 3 октября в дюймах
http://www.hpc.ncep.noaa.gov/qpf/p120i12.gif

до 200 и за 200 мм осадков.

ded
Участник
Письмо
наро-фоМИНСК
# Дата: 29 Сен 2010 10:10


Вдоль восточного побережья США протянулся активный атмосферный фронт
http://www.ssec.wisc.edu/data/us_comp/us_comp.html

На 16-00 Москвы 28 сентября 2010 в Вилмингтоне (Северная Каролина) выпало 291 мм осадков за 24 часа.

Alex
Участник
Письмо
Харьков
# Дата: 29 Сен 2010 16:35 - Поправил: Alex


ded
одна из метеостанций Лос Анжелеса зафиксировала 113 гр Фарентгейта (45 Цельсия)

Красиво этот взлет температуры выглядит на графике: http://pogoda.ru.net/monitor.php?id=72295. Интересно, что в течение лета даже +30 ни разу не было.

Max_F
Участник
Письмо
# Дата: 29 Сен 2010 16:48 - Поправил: Max_F


Что это такое вообще было-то? Фен что-ли? И на следующий день тот же максимум, стало быть, он общий, зафиксирован на исходе суток? Или редкостное совпадение?
Суточный ход вблизи океана тоже впечатляет.
Еще интересно, что за 40 там бывало только в сентябре и октябре, летом не бывало. А самые пики как раз в этих числах.

ded
Участник
Письмо
наро-фоМИНСК
# Дата: 29 Сен 2010 20:27 - Поправил: ded


Max_F На 850 в Сан Диего было +27 с копейками, у земли +35. Лос Анжелес севернее. Почему там был такой скачок - непонятно. По картам ничего подобного не прогнозировалось. Какой-то фантом проскочил.

slava31
Участник
Письмо
Монино
# Дата: 29 Сен 2010 20:59


Какой-то фантом проскочил
ded
вот как он выглядел в аэропорте ЛА почасово и без особого усиления ветра
KLAX 280053Z 25010KT 10SM CLR 29/10 A2969=
KLAX 272353Z 26012KT 10SM FEW080 31/10 A2969=
KLAX 272253Z 27010KT 10SM FEW080 33/11 A2970=
KLAX 272153Z 27011KT 10SM FEW080 34/10 A2972=
KLAX 272053Z 27010KT 10SM FEW080 35/09 A2973=
KLAX 271953Z 26009KT 10SM FEW090 37/09 A2976=
KLAX 271853Z 26009KT 10SM FEW080 36/12 A2977=
KLAX 271753Z VRB04KT 10SM FEW080 39/06 A2979=
KLAX 271653Z VRB05KT 10SM CLR 37/06 A2978=
KLAX 271553Z VRB03KT 10SM CLR 33/08 A2978=
KLAX 271453Z 00000KT 10SM CLR 28/09 A2978=
KLAX 271353Z 05004KT 10SM FEW025 23/13 A2977=
KLAX 271253Z 00000KT 10SM CLR 21/15 A2976=

<< 1 ... 9 . 10 . 11 . 12 . 13 . 14 . 15 . 16 . 17 . 18 . 19 ... 118 . 119 . >>
Ваш ответ

          Отменить *Что это?

 » Логин  » Пароль